Time;durP1;ratioP1;P1;durP2;ratioP2;P2;SDS_P1;SDS_P2;PMS_P1;PMS_P2;Temp;Humidity;BMP_temperature;BMP_pressure;BME280_temperature;BME280_humidity;BME280_pressure;Samples;Min_cycle;Max_cycle;Signal;HPM_P1;HPM_P2
2021/03/09 00:00:10;;;;;;;0.37;0.20;;;-2.30;46.80;;;;;;4345259;32;20070;-36
2021/03/09 00:02:36;;;;;;;1.27;0.20;;;-2.40;46.80;;;;;;4357704;32;20148;-34
2021/03/09 00:05:04;;;;;;;0.30;0.23;;;-2.40;46.90;;;;;;4357595;32;20066;-35
2021/03/09 00:07:30;;;;;;;1.70;0.27;;;-2.50;46.90;;;;;;4345517;32;20082;-35
2021/03/09 00:09:57;;;;;;;0.97;0.30;;;-2.60;47.00;;;;;;4352691;32;20156;-37
2021/03/09 00:12:23;;;;;;;0.40;0.30;;;-2.70;47.10;;;;;;4373309;32;20078;-36
2021/03/09 00:14:50;;;;;;;0.97;0.33;;;-2.80;47.10;;;;;;4372533;32;20150;-35
2021/03/09 00:17:16;;;;;;;0.60;0.23;;;-2.80;47.40;;;;;;4360392;32;20558;-39
2021/03/09 00:19:43;;;;;;;0.70;0.40;;;-2.90;47.50;;;;;;4359915;32;20062;-37
2021/03/09 00:22:09;;;;;;;0.67;0.30;;;-2.90;47.60;;;;;;4372597;32;20097;-36
2021/03/09 00:24:35;;;;;;;0.20;0.20;;;-2.90;47.70;;;;;;4347443;32;20243;-36
2021/03/09 00:27:02;;;;;;;1.23;0.20;;;-2.90;47.70;;;;;;4347712;32;20062;-37
2021/03/09 00:29:29;;;;;;;0.10;0.10;;;-2.90;47.80;;;;;;4365627;32;20072;-43
2021/03/09 00:31:55;;;;;;;0.30;0.30;;;-2.90;48.50;;;;;;4373444;32;20065;-36
2021/03/09 00:34:22;;;;;;;1.37;0.23;;;-2.90;47.80;;;;;;4375834;32;20172;-37
2021/03/09 00:36:48;;;;;;;0.50;0.30;;;-2.90;47.80;;;;;;4375739;32;20078;-37
2021/03/09 00:39:15;;;;;;;1.37;0.30;;;-2.90;47.70;;;;;;4388121;32;20062;-36
2021/03/09 00:41:41;;;;;;;1.93;0.30;;;-2.90;47.70;;;;;;4389600;32;20601;-36
2021/03/09 00:44:08;;;;;;;1.63;0.30;;;-3.00;47.60;;;;;;4388177;32;20070;-38
2021/03/09 00:46:34;;;;;;;0.20;0.20;;;-3.00;47.70;;;;;;4375593;32;20081;-36
2021/03/09 00:49:01;;;;;;;0.50;0.20;;;-3.10;47.60;;;;;;4387967;32;20057;-36
2021/03/09 00:51:27;;;;;;;0.30;0.20;;;-3.10;47.70;;;;;;4375586;32;20047;-35
2021/03/09 00:53:54;;;;;;;0.30;0.20;;;-3.10;47.80;;;;;;4388055;32;20070;-37
2021/03/09 00:56:20;;;;;;;3.60;0.50;;;-3.10;47.80;;;;;;4373996;32;20105;-36
2021/03/09 00:58:47;;;;;;;0.57;0.30;;;-3.20;47.80;;;;;;4362121;32;20137;-36
2021/03/09 01:01:13;;;;;;;0.23;0.20;;;-3.20;47.90;;;;;;4374081;32;20145;-39
2021/03/09 01:03:40;;;;;;;2.07;0.30;;;-3.20;48.00;;;;;;4343993;32;20089;-39
2021/03/09 01:06:06;;;;;;;2.20;0.30;;;-3.20;48.10;;;;;;4332147;32;20295;-41
2021/03/09 01:08:33;;;;;;;3.33;0.87;;;-3.20;48.10;;;;;;4356404;32;20154;-39
2021/03/09 01:10:59;;;;;;;1.17;0.20;;;-3.30;48.10;;;;;;4344721;32;20086;-36
2021/03/09 01:13:26;;;;;;;0.20;0.20;;;-3.30;48.00;;;;;;4344337;32;20148;-36
2021/03/09 01:15:52;;;;;;;0.73;0.30;;;-3.30;48.10;;;;;;4356738;32;20090;-36
2021/03/09 01:18:19;;;;;;;1.00;0.40;;;-3.30;48.00;;;;;;4344506;32;20142;-37
2021/03/09 01:20:47;;;;;;;1.13;0.30;;;-3.30;47.90;;;;;;4344422;32;20069;-35
2021/03/09 01:23:14;;;;;;;1.50;1.10;;;-3.30;47.70;;;;;;4329322;33;20093;-39
2021/03/09 01:25:41;;;;;;;2.63;1.00;;;-3.20;47.60;;;;;;4341693;33;20074;-36
2021/03/09 01:28:09;;;;;;;0.60;0.50;;;-3.20;47.50;;;;;;4353707;32;20150;-35
2021/03/09 01:30:35;;;;;;;0.87;0.40;;;-3.30;47.30;;;;;;4344248;32;20070;-34
2021/03/09 01:33:04;;;;;;;0.37;0.30;;;-3.30;47.20;;;;;;4344414;32;20113;-35
2021/03/09 01:35:31;;;;;;;1.83;0.80;;;-3.40;47.20;;;;;;4356361;32;20079;-36
2021/03/09 01:37:57;;;;;;;1.53;0.60;;;-3.50;47.20;;;;;;4356345;32;20098;-36
2021/03/09 01:40:25;;;;;;;2.50;0.60;;;-3.50;47.30;;;;;;4319443;32;20089;-36
2021/03/09 01:42:52;;;;;;;1.57;0.50;;;-3.60;47.40;;;;;;4356034;32;20600;-39
2021/03/09 01:45:18;;;;;;;2.20;0.50;;;-3.70;47.40;;;;;;4344024;32;20601;-38
2021/03/09 01:47:47;;;;;;;3.07;0.70;;;-3.80;47.50;;;;;;4325856;33;20059;-38
2021/03/09 01:50:16;;;;;;;3.00;0.60;;;-3.80;47.70;;;;;;4326671;33;20235;-38
2021/03/09 01:52:43;;;;;;;1.40;0.60;;;-3.90;47.70;;;;;;4297099;33;20519;-39
2021/03/09 01:55:11;;;;;;;0.80;0.50;;;-3.90;47.70;;;;;;4285574;33;20174;-35
2021/03/09 01:57:38;;;;;;;0.80;0.70;;;-3.90;47.70;;;;;;4261093;33;20078;-38
2021/03/09 02:00:05;;;;;;;0.83;0.80;;;-4.00;47.70;;;;;;4280630;33;20574;-36
2021/03/09 02:02:32;;;;;;;1.50;0.40;;;-4.00;47.80;;;;;;4326491;33;20051;-41
2021/03/09 02:04:59;;;;;;;3.57;1.57;;;-4.00;48.00;;;;;;4314271;33;20550;-36
2021/03/09 02:07:25;;;;;;;2.30;1.17;;;-4.00;48.80;;;;;;4314240;33;20570;-35
2021/03/09 02:09:53;;;;;;;1.27;0.50;;;-4.10;48.30;;;;;;4320891;33;20157;-37
2021/03/09 02:12:37;;;;;;;0.73;0.33;;;-4.10;48.20;;;;;;4326468;33;20079;-36
2021/03/09 02:15:31;;;;;;;1.27;0.50;;;-4.10;48.20;;;;;;4303036;33;20055;-36
2021/03/09 02:18:20;;;;;;;2.78;1.33;;;-4.10;48.10;;;;;;4314220;33;20176;-36
2021/03/09 02:21:14;;;;;;;0.67;0.50;;;-4.10;47.90;;;;;;4326368;33;20113;-39
2021/03/09 02:24:30;;;;;;;1.07;0.40;;;-4.10;47.80;;;;;;4299428;33;20540;-36
2021/03/09 02:27:21;;;;;;;2.08;0.60;;;-4.10;47.70;;;;;;4311192;33;20503;-38
2021/03/09 02:30:08;;;;;;;5.30;1.60;;;-4.10;47.60;;;;;;4321436;33;20159;-36
2021/03/09 02:32:44;;;;;;;8.67;1.90;;;-4.20;47.40;;;;;;4341067;32;20110;-36
2021/03/09 02:35:14;;;;;;;3.33;1.10;;;-4.20;47.40;;;;;;4304494;33;20163;-36
2021/03/09 02:37:41;;;;;;;5.40;1.17;;;-4.30;48.00;;;;;;4311470;33;20508;-35
2021/03/09 02:40:12;;;;;;;1.20;0.40;;;-4.40;47.40;;;;;;4314047;33;20067;-35
2021/03/09 02:42:46;;;;;;;0.60;0.40;;;-4.40;47.40;;;;;;4326079;33;20059;-35
2021/03/09 02:45:15;;;;;;;1.98;0.50;;;-4.50;47.40;;;;;;4313593;33;20523;-35
2021/03/09 02:47:47;;;;;;;0.43;0.30;;;-4.50;47.50;;;;;;4326046;33;20117;-35
2021/03/09 02:50:15;;;;;;;1.97;0.83;;;-4.50;47.50;;;;;;4313951;33;20476;-35
2021/03/09 02:52:42;;;;;;;2.57;0.40;;;-4.40;47.50;;;;;;4326146;33;20506;-35
2021/03/09 02:55:11;;;;;;;2.23;1.00;;;-4.40;47.40;;;;;;4303981;33;20189;-36
2021/03/09 02:57:39;;;;;;;2.20;0.50;;;-4.40;47.40;;;;;;4340648;33;20733;-38
2021/03/09 03:00:07;;;;;;;3.03;1.10;;;-4.40;47.20;;;;;;4340833;33;20549;-35
2021/03/09 03:02:36;;;;;;;4.10;1.70;;;-4.40;47.10;;;;;;4328459;33;20063;-36
2021/03/09 03:05:05;;;;;;;3.33;1.30;;;-4.40;47.10;;;;;;4328422;33;20610;-36
2021/03/09 03:07:33;;;;;;;7.97;2.10;;;-4.40;47.00;;;;;;4341320;32;20074;-38
2021/03/09 03:10:00;;;;;;;5.40;2.40;;;-4.50;47.00;;;;;;4360414;32;20089;-39
2021/03/09 03:12:31;;;;;;;5.57;1.50;;;-4.40;47.00;;;;;;4361826;32;20628;-35
2021/03/09 03:14:58;;;;;;;3.23;1.20;;;-4.40;47.00;;;;;;4350394;32;20138;-35
2021/03/09 03:17:25;;;;;;;0.77;0.57;;;-4.40;46.90;;;;;;4361527;32;20576;-35
2021/03/09 03:19:51;;;;;;;9.40;4.00;;;-4.50;46.70;;;;;;4375548;32;20069;-35
2021/03/09 03:22:18;;;;;;;5.93;3.67;;;-4.50;46.60;;;;;;4361794;32;20133;-35
2021/03/09 03:24:46;;;;;;;34.27;5.90;;;-4.50;46.50;;;;;;4321321;32;20159;-35
2021/03/09 03:27:19;;;;;;;3.27;0.70;;;-4.50;46.30;;;;;;4345493;32;20546;-36
2021/03/09 03:29:47;;;;;;;1.40;0.70;;;-4.50;46.30;;;;;;4357674;32;20517;-38
2021/03/09 03:32:15;;;;;;;6.57;1.60;;;-4.60;46.20;;;;;;4333006;32;20109;-35
2021/03/09 03:34:44;;;;;;;10.63;2.53;;;-4.60;46.30;;;;;;4318455;33;20075;-35
2021/03/09 03:37:12;;;;;;;5.30;3.60;;;-4.60;46.30;;;;;;4318893;33;20086;-35
2021/03/09 03:39:39;;;;;;;6.30;3.20;;;-4.60;46.30;;;;;;4331277;33;20643;-43
2021/03/09 03:42:06;;;;;;;5.77;1.43;;;-4.60;46.40;;;;;;4330717;33;20487;-35
2021/03/09 03:44:34;;;;;;;5.30;1.30;;;-4.60;46.40;;;;;;4343073;33;20531;-35
2021/03/09 03:47:00;;;;;;;5.10;1.20;;;-4.60;46.40;;;;;;4318648;33;20075;-35
2021/03/09 03:49:29;;;;;;;3.27;1.37;;;-4.50;46.60;;;;;;4343135;33;20147;-36
2021/03/09 03:52:17;;;;;;;2.40;1.30;;;-4.50;46.80;;;;;;4319035;33;20546;-35
2021/03/09 03:55:06;;;;;;;4.60;0.90;;;-4.40;47.00;;;;;;4332956;32;20175;-35
2021/03/09 03:57:38;;;;;;;1.03;0.77;;;-4.30;47.50;;;;;;4348525;32;20050;-35
2021/03/09 04:00:06;;;;;;;1.60;1.00;;;-4.20;47.80;;;;;;4348904;32;20089;-35
2021/03/09 04:02:32;;;;;;;3.13;0.70;;;-4.10;48.30;;;;;;4341596;32;20066;-34
2021/03/09 04:04:59;;;;;;;1.47;0.97;;;-3.90;48.50;;;;;;4337443;32;20093;-35
2021/03/09 04:07:27;;;;;;;2.23;0.77;;;-3.70;48.70;;;;;;4373714;32;20069;-35
2021/03/09 04:09:55;;;;;;;1.87;0.87;;;-3.40;49.30;;;;;;4358593;32;20081;-35
2021/03/09 04:12:27;;;;;;;2.67;0.80;;;-3.10;49.40;;;;;;4388488;32;20062;-35
2021/03/09 04:14:58;;;;;;;0.70;0.50;;;-2.90;49.30;;;;;;4376508;32;20085;-36
2021/03/09 04:17:25;;;;;;;2.37;0.57;;;-2.60;49.10;;;;;;4339748;32;20065;-36
2021/03/09 04:19:53;;;;;;;3.03;0.80;;;-2.40;49.10;;;;;;4376027;32;20065;-39
2021/03/09 04:22:20;;;;;;;1.93;0.70;;;-2.20;49.30;;;;;;4363802;32;20062;-38
2021/03/09 04:24:47;;;;;;;2.23;0.77;;;-1.90;49.40;;;;;;4388326;32;20062;-39
2021/03/09 04:27:21;;;;;;;1.23;0.67;;;-1.60;49.30;;;;;;4363469;32;20069;-41
2021/03/09 04:29:59;;;;;;;3.63;0.80;;;-1.30;49.50;;;;;;4388096;32;20484;-38
2021/03/09 04:32:26;;;;;;;2.20;0.57;;;-0.90;49.50;;;;;;4388775;32;20493;-37
2021/03/09 04:34:54;;;;;;;1.10;0.60;;;-0.60;49.20;;;;;;4388536;32;20050;-40
2021/03/09 04:37:20;;;;;;;4.20;0.60;;;-0.30;48.70;;;;;;4344607;32;20580;-38
2021/03/09 04:39:47;;;;;;;5.23;0.50;;;-0.10;48.00;;;;;;4332180;32;20089;-37
2021/03/09 04:42:14;;;;;;;2.60;0.50;;;0.20;48.00;;;;;;4330197;32;20058;-39
2021/03/09 04:44:40;;;;;;;1.00;0.30;;;0.40;47.60;;;;;;4330198;33;20075;-41
2021/03/09 04:47:07;;;;;;;1.67;0.50;;;0.60;47.20;;;;;;4329809;33;20082;-41
2021/03/09 04:49:35;;;;;;;1.50;0.30;;;0.80;46.60;;;;;;4330339;33;20575;-38
2021/03/09 04:52:03;;;;;;;0.50;0.30;;;1.00;46.20;;;;;;4329878;33;20074;-40
2021/03/09 04:54:30;;;;;;;0.43;0.30;;;1.10;45.40;;;;;;4317978;33;20214;-36
2021/03/09 04:56:56;;;;;;;1.13;0.40;;;1.30;45.50;;;;;;4317699;33;20128;-36
2021/03/09 04:59:23;;;;;;;0.60;0.30;;;1.50;45.00;;;;;;4342233;33;20075;-36
2021/03/09 05:01:49;;;;;;;0.43;0.37;;;1.80;45.30;;;;;;4329630;33;20059;-37
2021/03/09 05:04:16;;;;;;;1.00;0.30;;;2.00;45.10;;;;;;4329847;33;20063;-37
2021/03/09 05:06:42;;;;;;;0.70;0.40;;;2.20;44.70;;;;;;4342324;33;20081;-37
2021/03/09 05:09:09;;;;;;;3.90;0.50;;;2.50;44.30;;;;;;4336466;32;20081;-37
2021/03/09 05:11:35;;;;;;;2.33;0.30;;;2.70;43.40;;;;;;4347012;32;20659;-36
2021/03/09 05:14:02;;;;;;;1.93;0.30;;;3.00;43.30;;;;;;4370012;32;20066;-36
2021/03/09 05:16:28;;;;;;;1.40;0.30;;;3.30;42.70;;;;;;4347999;32;20062;-39
2021/03/09 05:18:55;;;;;;;1.70;0.60;;;3.50;41.80;;;;;;4374141;32;20070;-38
2021/03/09 05:21:22;;;;;;;0.60;0.23;;;3.70;41.50;;;;;;4372587;32;20079;-35
2021/03/09 05:23:48;;;;;;;1.00;0.30;;;4.00;41.10;;;;;;4373904;32;20503;-36
2021/03/09 05:26:15;;;;;;;1.13;0.30;;;4.30;40.60;;;;;;4373151;32;20054;-37
2021/03/09 05:28:41;;;;;;;0.77;0.30;;;4.50;40.60;;;;;;4372969;32;20149;-35
2021/03/09 05:31:08;;;;;;;0.57;0.23;;;4.70;40.20;;;;;;4338121;32;20074;-36
2021/03/09 05:33:34;;;;;;;0.83;0.20;;;5.10;40.10;;;;;;4374254;32;20527;-36
2021/03/09 05:36:01;;;;;;;1.10;0.50;;;5.40;39.00;;;;;;4375495;32;20097;-37
2021/03/09 05:38:27;;;;;;;1.10;0.40;;;5.70;39.10;;;;;;4341956;33;20157;-35
2021/03/09 05:40:54;;;;;;;3.90;0.50;;;5.90;38.90;;;;;;4329886;33;20075;-36
2021/03/09 05:43:20;;;;;;;0.70;0.40;;;6.20;38.10;;;;;;4330009;33;20171;-37
2021/03/09 05:45:47;;;;;;;2.77;0.30;;;6.50;37.70;;;;;;4329565;33;20076;-41
2021/03/09 05:48:14;;;;;;;0.70;0.30;;;6.60;36.70;;;;;;4317894;33;20073;-35
2021/03/09 05:50:40;;;;;;;0.87;0.33;;;6.90;36.50;;;;;;4300322;33;20544;-39
2021/03/09 05:53:07;;;;;;;0.93;0.40;;;7.10;36.40;;;;;;4312300;33;20501;-37
2021/03/09 05:55:33;;;;;;;1.43;0.60;;;7.30;36.00;;;;;;4300378;33;20056;-35
2021/03/09 05:58:00;;;;;;;1.93;0.40;;;7.60;35.40;;;;;;4300494;33;20059;-36
2021/03/09 06:00:27;;;;;;;0.50;0.30;;;7.70;34.20;;;;;;4300116;33;20108;-39
2021/03/09 06:02:54;;;;;;;0.57;0.30;;;7.80;33.50;;;;;;4300684;33;20063;-38
2021/03/09 06:05:21;;;;;;;3.10;0.40;;;7.90;34.80;;;;;;4271791;33;20227;-39
2021/03/09 06:07:48;;;;;;;1.80;0.53;;;8.20;34.60;;;;;;4283615;33;20132;-44
2021/03/09 06:10:23;;;;;;;0.83;0.33;;;8.50;34.00;;;;;;4294949;33;20181;-44
2021/03/09 06:12:50;;;;;;;0.50;0.20;;;8.70;33.00;;;;;;4324109;33;20532;-44
2021/03/09 06:15:17;;;;;;;1.03;0.30;;;9.00;32.50;;;;;;4330747;32;20058;-44
2021/03/09 06:17:51;;;;;;;0.57;0.30;;;9.30;31.90;;;;;;4329366;33;20067;-46
2021/03/09 06:20:18;;;;;;;1.03;0.30;;;9.70;31.90;;;;;;4318113;33;20082;-43
2021/03/09 06:22:52;;;;;;;2.93;0.30;;;10.20;31.40;;;;;;4355477;32;20198;-45
2021/03/09 06:25:22;;;;;;;0.40;0.20;;;10.60;31.20;;;;;;4356415;32;20066;-46
2021/03/09 06:27:49;;;;;;;1.67;0.50;;;10.90;29.20;;;;;;4344977;32;20069;-45
2021/03/09 06:30:40;;;;;;;1.02;0.40;;;11.20;29.70;;;;;;4356521;32;20106;-44
2021/03/09 06:33:07;;;;;;;0.85;0.30;;;11.70;29.80;;;;;;4344896;32;20089;-44
2021/03/09 06:35:42;;;;;;;0.75;0.30;;;12.00;29.30;;;;;;4344146;32;20180;-42
2021/03/09 06:38:19;;;;;;;0.60;0.25;;;12.10;28.30;;;;;;4344219;32;20065;-44
2021/03/09 06:41:06;;;;;;;1.67;0.30;;;12.20;28.40;;;;;;4311831;33;20055;-44
2021/03/09 06:43:33;;;;;;;0.65;0.40;;;12.20;28.40;;;;;;4326196;33;20070;-44
2021/03/09 06:46:20;;;;;;;1.75;0.40;;;12.30;28.60;;;;;;4316384;33;20515;-43
2021/03/09 06:48:52;;;;;;;1.90;0.37;;;12.40;28.40;;;;;;4284909;33;20475;-44
2021/03/09 06:51:34;;;;;;;1.48;0.40;;;12.40;27.80;;;;;;4284821;33;20314;-44
2021/03/09 06:54:09;;;;;;;1.98;0.30;;;12.40;27.50;;;;;;4296944;33;20180;-43
2021/03/09 06:56:40;;;;;;;1.98;0.50;;;12.40;27.10;;;;;;4296626;33;20254;-44
2021/03/09 06:59:20;;;;;;;1.62;0.40;;;12.40;26.90;;;;;;4285222;33;20057;-43
2021/03/09 07:02:28;;;;;;;4.68;2.05;;;12.30;26.50;;;;;;4267551;33;20644;-43
2021/03/09 07:05:03;;;;;;;0.40;0.20;;;12.20;26.60;;;;;;4199713;34;20065;-44
2021/03/09 07:07:35;;;;;;;0.88;0.30;;;12.20;26.40;;;;;;4211259;34;20061;-45
2021/03/09 07:10:07;;;;;;;1.00;0.30;;;12.00;26.40;;;;;;4231681;33;20097;-44
2021/03/09 07:12:35;;;;;;;1.83;0.40;;;11.90;26.60;;;;;;4216421;33;20182;-45
2021/03/09 07:15:03;;;;;;;2.08;0.40;;;11.80;26.80;;;;;;4227836;33;20104;-45
2021/03/09 07:17:32;;;;;;;2.25;0.47;;;11.70;26.60;;;;;;4232956;33;20111;-43
2021/03/09 07:19:59;;;;;;;1.70;0.40;;;11.50;26.60;;;;;;4250833;33;20130;-44
2021/03/09 07:22:27;;;;;;;0.75;0.35;;;11.30;26.60;;;;;;4227817;33;20144;-44
2021/03/09 07:25:00;;;;;;;1.23;0.40;;;11.10;26.70;;;;;;4227597;33;20127;-45
2021/03/09 07:28:09;;;;;;;3.28;0.40;;;10.80;26.80;;;;;;4267009;33;20080;-44
2021/03/09 07:30:39;;;;;;;0.30;0.23;;;10.40;27.10;;;;;;4252743;33;20187;-43
2021/03/09 07:33:06;;;;;;;2.47;0.40;;;10.10;27.20;;;;;;4250560;33;20175;-44
2021/03/09 07:35:33;;;;;;;0.90;0.43;;;9.90;27.50;;;;;;4267625;33;20103;-44
2021/03/09 07:37:59;;;;;;;1.07;0.30;;;9.60;27.70;;;;;;4255787;33;20172;-44
2021/03/09 07:40:28;;;;;;;1.03;0.30;;;9.50;27.70;;;;;;4263197;33;20571;-44
2021/03/09 07:42:58;;;;;;;2.27;0.70;;;9.40;28.00;;;;;;4270002;33;20083;-44
2021/03/09 07:45:35;;;;;;;1.50;0.40;;;9.20;28.00;;;;;;4267037;33;20557;-44
2021/03/09 07:48:06;;;;;;;2.67;0.47;;;9.20;28.20;;;;;;4243981;33;20087;-43
2021/03/09 07:50:42;;;;;;;3.47;0.73;;;9.10;28.20;;;;;;4268778;33;20086;-43
2021/03/09 07:53:13;;;;;;;1.43;0.40;;;9.20;28.30;;;;;;4299316;33;20067;-43
2021/03/09 07:56:07;;;;;;;0.77;0.30;;;9.20;28.30;;;;;;4299428;33;20685;-44
2021/03/09 07:58:33;;;;;;;0.97;0.30;;;9.30;28.10;;;;;;4313273;33;20060;-43
2021/03/09 08:01:04;;;;;;;0.60;0.47;;;9.30;28.20;;;;;;4301551;33;20849;-43
2021/03/09 08:03:41;;;;;;;2.30;0.70;;;9.20;28.10;;;;;;4313827;33;20229;-44
2021/03/09 08:06:08;;;;;;;0.53;0.40;;;9.20;28.40;;;;;;4342416;33;20071;-44
2021/03/09 08:08:41;;;;;;;2.00;0.40;;;9.20;28.40;;;;;;4363814;32;20073;-45
2021/03/09 08:11:14;;;;;;;0.93;0.30;;;9.10;28.40;;;;;;4372452;32;20581;-43
2021/03/09 08:13:43;;;;;;;0.80;0.40;;;9.10;28.50;;;;;;4359716;32;20611;-44
2021/03/09 08:16:26;;;;;;;0.80;0.40;;;9.00;28.60;;;;;;4342353;33;20470;-45
2021/03/09 08:19:04;;;;;;;1.23;0.30;;;9.00;28.60;;;;;;4342765;33;20174;-45
2021/03/09 08:21:50;;;;;;;0.60;0.40;;;9.00;28.50;;;;;;4330476;33;20071;-44
2021/03/09 08:24:19;;;;;;;1.20;0.30;;;9.00;28.50;;;;;;4357565;32;20194;-43
2021/03/09 08:26:47;;;;;;;1.63;0.40;;;9.00;28.50;;;;;;4357306;32;20082;-44
2021/03/09 08:29:28;;;;;;;0.63;0.40;;;9.10;28.60;;;;;;4357126;32;20065;-43
2021/03/09 08:32:29;;;;;;;0.40;0.20;;;9.30;28.60;;;;;;4357350;32;20062;-45
2021/03/09 08:35:15;;;;;;;1.33;0.30;;;9.40;28.00;;;;;;4345708;32;20578;-45
2021/03/09 08:37:44;;;;;;;1.87;0.30;;;9.60;27.80;;;;;;4357375;32;20221;-44
2021/03/09 08:40:14;;;;;;;0.60;0.23;;;9.80;27.90;;;;;;4345072;32;20130;-44
2021/03/09 08:43:01;;;;;;;0.67;0.30;;;9.80;27.90;;;;;;4345197;32;20070;-44
2021/03/09 08:45:44;;;;;;;2.20;0.30;;;9.80;27.80;;;;;;4357251;32;20078;-44
2021/03/09 08:48:11;;;;;;;3.27;0.37;;;9.90;27.70;;;;;;4361394;32;20100;-44
2021/03/09 08:50:47;;;;;;;0.77;0.73;;;9.90;27.80;;;;;;4404806;32;20124;-45
2021/03/09 08:53:31;;;;;;;1.53;0.43;;;9.90;27.70;;;;;;4404601;32;20538;-45
2021/03/09 08:56:01;;;;;;;0.50;0.20;;;9.80;27.60;;;;;;4390909;32;20065;-45
2021/03/09 08:58:28;;;;;;;0.33;0.20;;;9.80;27.40;;;;;;4390744;32;20072;-46
2021/03/09 09:00:54;;;;;;;0.93;0.23;;;9.80;27.40;;;;;;4404928;32;20085;-45
2021/03/09 09:03:31;;;;;;;4.37;0.20;;;9.80;27.40;;;;;;4365952;32;20573;-45
2021/03/09 09:05:57;;;;;;;0.67;0.20;;;9.90;27.50;;;;;;4404768;32;20559;-45
2021/03/09 09:08:24;;;;;;;4.13;0.20;;;10.00;27.40;;;;;;4402777;32;20077;-45
2021/03/09 09:10:51;;;;;;;1.43;0.30;;;10.00;27.10;;;;;;4389140;32;20530;-45
2021/03/09 09:13:29;;;;;;;5.23;0.60;;;10.00;27.00;;;;;;4356535;32;20067;-44
2021/03/09 09:15:56;;;;;;;0.60;0.30;;;10.10;27.20;;;;;;4333480;32;20257;-44
2021/03/09 09:18:23;;;;;;;0.70;0.20;;;10.10;26.90;;;;;;4356842;32;20552;-44
2021/03/09 09:20:50;;;;;;;1.07;0.20;;;10.10;26.70;;;;;;4305369;33;20242;-43
2021/03/09 09:23:21;;;;;;;1.40;0.20;;;10.00;27.00;;;;;;4314657;33;20536;-44
2021/03/09 09:25:53;;;;;;;4.67;0.30;;;10.10;27.10;;;;;;4327173;33;20078;-44
2021/03/09 09:28:32;;;;;;;0.60;0.30;;;10.10;27.20;;;;;;4315216;33;20618;-44
2021/03/09 09:31:22;;;;;;;0.30;0.10;;;10.10;27.20;;;;;;4327489;33;20600;-46
2021/03/09 09:33:53;;;;;;;5.03;0.30;;;10.10;27.20;;;;;;4327303;33;20071;-44
2021/03/09 09:36:20;;;;;;;2.93;0.77;;;10.20;27.00;;;;;;4327147;33;20090;-45
2021/03/09 09:38:53;;;;;;;2.97;0.10;;;10.30;27.10;;;;;;4326835;33;20546;-43
2021/03/09 09:41:21;;;;;;;0.43;0.13;;;10.40;26.80;;;;;;4314710;33;20675;-43
2021/03/09 09:43:48;;;;;;;0.65;0.20;;;10.40;26.60;;;;;;4314955;33;20074;-44
2021/03/09 09:46:23;;;;;;;2.97;0.20;;;10.30;26.70;;;;;;4327276;33;20091;-44
2021/03/09 09:48:49;;;;;;;4.40;0.77;;;10.20;26.60;;;;;;4314581;33;20082;-44
2021/03/09 09:51:21;;;;;;;3.37;0.30;;;10.20;27.20;;;;;;4351689;32;20061;-45
2021/03/09 09:53:51;;;;;;;2.47;0.20;;;10.40;27.00;;;;;;4376322;32;20096;-44
2021/03/09 09:56:17;;;;;;;3.42;0.30;;;10.50;26.90;;;;;;4362496;32;20615;-43
2021/03/09 09:58:51;;;;;;;0.40;0.30;;;10.70;26.80;;;;;;4388738;32;20062;-44
2021/03/09 10:01:38;;;;;;;1.75;0.25;;;11.00;26.60;;;;;;4374951;32;20524;-44
2021/03/09 10:04:11;;;;;;;7.15;0.88;;;11.10;26.50;;;;;;4387399;32;20538;-45
2021/03/09 10:06:45;;;;;;;1.25;0.30;;;11.30;26.40;;;;;;4386546;32;20053;-45
2021/03/09 10:09:24;;;;;;;0.60;0.40;;;11.40;26.00;;;;;;4388540;32;20072;-45
2021/03/09 10:11:55;;;;;;;1.05;0.30;;;11.50;26.00;;;;;;4388433;32;20572;-44
2021/03/09 10:14:32;;;;;;;2.60;0.20;;;11.60;25.80;;;;;;4374769;32;20653;-44
2021/03/09 10:16:59;;;;;;;3.30;0.20;;;11.50;25.50;;;;;;4364189;32;20077;-45
2021/03/09 10:19:35;;;;;;;0.30;0.20;;;11.30;25.80;;;;;;4386257;32;20109;-44
2021/03/09 10:22:01;;;;;;;3.10;0.20;;;11.00;25.60;;;;;;4374981;32;20077;-44
2021/03/09 10:24:31;;;;;;;0.50;0.20;;;10.80;26.00;;;;;;4387348;32;20053;-43
2021/03/09 10:27:00;;;;;;;1.53;0.33;;;10.60;26.10;;;;;;4388219;32;20614;-43
2021/03/09 10:29:33;;;;;;;0.33;0.20;;;10.40;26.60;;;;;;4388364;32;20579;-45
2021/03/09 10:32:01;;;;;;;2.40;0.37;;;10.20;26.60;;;;;;4386914;32;20070;-43
2021/03/09 10:34:39;;;;;;;1.70;0.40;;;10.00;27.10;;;;;;4386871;32;20070;-44
2021/03/09 10:37:13;;;;;;;0.70;0.30;;;9.70;27.00;;;;;;4388681;32;20060;-43
2021/03/09 10:40:00;;;;;;;4.83;0.60;;;9.60;27.30;;;;;;4387097;32;20115;-44
2021/03/09 10:42:33;;;;;;;4.47;0.30;;;9.50;27.40;;;;;;4388176;32;20587;-42
2021/03/09 10:45:20;;;;;;;0.93;0.60;;;9.40;27.30;;;;;;4355533;32;20086;-44
2021/03/09 10:48:00;;;;;;;4.43;0.30;;;9.20;27.50;;;;;;4345246;32;20695;-44
2021/03/09 10:50:31;;;;;;;2.90;0.30;;;9.00;27.60;;;;;;4338503;33;20063;-41
2021/03/09 10:52:58;;;;;;;6.40;0.30;;;8.90;27.70;;;;;;4314101;33;20081;-41
2021/03/09 10:55:25;;;;;;;2.47;0.47;;;8.80;28.00;;;;;;4325551;33;20199;-36
2021/03/09 10:57:52;;;;;;;3.30;0.60;;;8.70;28.30;;;;;;4301673;33;20060;-38
2021/03/09 11:00:22;;;;;;;4.00;0.57;;;8.80;28.40;;;;;;4325804;33;20059;-37
2021/03/09 11:02:48;;;;;;;2.40;0.63;;;8.90;28.50;;;;;;4325574;33;20171;-37
2021/03/09 11:05:15;;;;;;;7.40;0.70;;;9.00;28.30;;;;;;4313226;33;20070;-43
2021/03/09 11:07:42;;;;;;;4.90;0.70;;;9.00;28.10;;;;;;4313578;33;20589;-43
2021/03/09 11:10:13;;;;;;;3.80;0.70;;;9.10;28.10;;;;;;4300509;33;20063;-36
2021/03/09 11:12:40;;;;;;;6.03;0.70;;;9.00;27.70;;;;;;4328637;33;20066;-38
2021/03/09 11:15:08;;;;;;;3.77;0.93;;;8.90;28.10;;;;;;4340387;33;20070;-41
2021/03/09 11:17:34;;;;;;;2.33;0.90;;;8.80;28.40;;;;;;4340932;33;20163;-39
2021/03/09 11:20:02;;;;;;;4.20;0.73;;;8.80;28.40;;;;;;4340927;33;20055;-43
2021/03/09 11:22:29;;;;;;;1.67;0.50;;;8.90;28.60;;;;;;4354550;32;20054;-41
2021/03/09 11:24:55;;;;;;;3.30;0.50;;;8.90;28.20;;;;;;4343259;32;20481;-42
2021/03/09 11:27:22;;;;;;;1.63;0.50;;;8.80;28.10;;;;;;4355150;32;20059;-40
2021/03/09 11:29:49;;;;;;;2.97;0.40;;;8.70;28.60;;;;;;4342500;32;20155;-42
2021/03/09 11:32:15;;;;;;;1.50;0.40;;;8.70;28.50;;;;;;4358222;32;20121;-37
2021/03/09 11:34:42;;;;;;;6.57;0.80;;;8.70;28.50;;;;;;4343333;33;20551;-38
2021/03/09 11:37:08;;;;;;;2.93;0.80;;;8.80;28.60;;;;;;4331238;33;20090;-40
2021/03/09 11:39:35;;;;;;;3.53;1.07;;;8.90;28.70;;;;;;4331137;33;20094;-37
2021/03/09 11:42:01;;;;;;;4.67;1.17;;;9.10;28.90;;;;;;4343568;33;20082;-39
2021/03/09 11:44:28;;;;;;;3.70;0.90;;;9.50;28.70;;;;;;4330955;33;20145;-38
2021/03/09 11:46:55;;;;;;;0.43;0.30;;;9.90;28.50;;;;;;4355453;32;20073;-37
2021/03/09 11:49:21;;;;;;;1.40;0.40;;;10.00;27.80;;;;;;4348291;32;20070;-36
2021/03/09 11:51:48;;;;;;;1.33;0.60;;;10.10;27.80;;;;;;4360952;32;20149;-38
2021/03/09 11:54:15;;;;;;;3.80;0.50;;;10.00;27.60;;;;;;4358160;32;20082;-36
2021/03/09 11:56:41;;;;;;;1.50;0.63;;;10.00;27.70;;;;;;4358409;32;20102;-38
2021/03/09 11:59:08;;;;;;;0.80;0.40;;;9.80;27.30;;;;;;4345590;32;20109;-42
2021/03/09 12:01:34;;;;;;;1.20;0.20;;;9.60;27.40;;;;;;4358194;32;20065;-37
2021/03/09 12:04:01;;;;;;;1.87;0.67;;;9.40;27.30;;;;;;4357674;32;20662;-36
2021/03/09 12:06:28;;;;;;;0.40;0.20;;;9.30;28.00;;;;;;4360243;32;20200;-38
2021/03/09 12:08:54;;;;;;;1.33;0.40;;;9.20;28.00;;;;;;4376731;32;20082;-38
2021/03/09 12:11:21;;;;;;;1.20;0.60;;;9.10;28.10;;;;;;4387937;32;20554;-39
2021/03/09 12:13:47;;;;;;;1.77;0.30;;;8.90;28.10;;;;;;4375270;32;20580;-40
2021/03/09 12:16:14;;;;;;;0.40;0.30;;;8.80;28.10;;;;;;4375175;32;20116;-39
2021/03/09 12:18:41;;;;;;;0.33;0.30;;;8.80;28.30;;;;;;4375356;32;20070;-37
2021/03/09 12:21:07;;;;;;;0.67;0.23;;;8.70;27.90;;;;;;4363262;32;20224;-36
2021/03/09 12:23:34;;;;;;;0.73;0.40;;;8.60;28.00;;;;;;4375546;32;20058;-36
2021/03/09 12:26:01;;;;;;;1.37;0.40;;;8.70;28.40;;;;;;4375458;32;20097;-39
2021/03/09 12:28:27;;;;;;;0.70;0.50;;;8.50;28.30;;;;;;4387622;32;20165;-38
2021/03/09 12:30:54;;;;;;;3.50;0.40;;;8.30;28.60;;;;;;4373049;32;20536;-36
2021/03/09 12:33:21;;;;;;;2.40;0.30;;;8.10;28.60;;;;;;4348607;32;20564;-35
2021/03/09 12:35:47;;;;;;;2.07;0.63;;;8.00;29.30;;;;;;4373317;32;20105;-38
2021/03/09 12:38:14;;;;;;;0.73;0.40;;;7.80;29.10;;;;;;4360736;32;20210;-35
2021/03/09 12:40:41;;;;;;;0.70;0.50;;;7.70;29.10;;;;;;4373141;32;20121;-38
2021/03/09 12:43:09;;;;;;;0.90;0.57;;;7.50;28.80;;;;;;4372961;32;20524;-37
2021/03/09 12:45:36;;;;;;;3.17;0.60;;;7.40;29.80;;;;;;4361221;32;20061;-35
2021/03/09 12:48:04;;;;;;;0.97;0.50;;;7.20;29.50;;;;;;4374516;32;20146;-37
2021/03/09 12:50:30;;;;;;;0.73;0.40;;;7.10;29.40;;;;;;4348474;32;20516;-37
2021/03/09 12:52:57;;;;;;;1.10;0.50;;;6.90;29.80;;;;;;4360567;32;20058;-36
2021/03/09 12:55:24;;;;;;;1.10;0.40;;;6.80;29.30;;;;;;4342294;32;20221;-37
2021/03/09 12:57:50;;;;;;;2.23;0.70;;;6.70;29.60;;;;;;4317815;33;20107;-36
2021/03/09 13:00:18;;;;;;;1.47;0.63;;;6.80;30.00;;;;;;4317912;32;20577;-36
2021/03/09 13:02:44;;;;;;;2.43;0.50;;;6.70;29.90;;;;;;4342092;32;20055;-37
2021/03/09 13:05:11;;;;;;;1.63;0.60;;;6.80;30.00;;;;;;4329664;33;20138;-41